sensor_id;sensor_type;location;lat;lon;timestamp;temperature;humidity
45044;DHT22;30784;48.490;9.688;2023-05-25T00:00:14;13.80;42.10
45044;DHT22;30784;48.490;9.688;2023-05-25T00:02:40;13.80;42.20
45044;DHT22;30784;48.490;9.688;2023-05-25T00:05:10;13.80;42.30
45044;DHT22;30784;48.490;9.688;2023-05-25T00:07:36;13.80;41.60
45044;DHT22;30784;48.490;9.688;2023-05-25T00:10:03;13.80;42.50
45044;DHT22;30784;48.490;9.688;2023-05-25T00:12:28;13.80;42.10
45044;DHT22;30784;48.490;9.688;2023-05-25T00:14:54;13.70;42.40
45044;DHT22;30784;48.490;9.688;2023-05-25T00:17:20;13.70;42.50
45044;DHT22;30784;48.490;9.688;2023-05-25T00:19:46;13.60;42.50
45044;DHT22;30784;48.490;9.688;2023-05-25T00:22:11;13.60;42.70
45044;DHT22;30784;48.490;9.688;2023-05-25T00:24:38;13.60;42.70
45044;DHT22;30784;48.490;9.688;2023-05-25T00:27:04;13.60;42.80
45044;DHT22;30784;48.490;9.688;2023-05-25T00:29:32;13.60;42.90
45044;DHT22;30784;48.490;9.688;2023-05-25T00:31:57;13.60;42.90
45044;DHT22;30784;48.490;9.688;2023-05-25T00:34:23;13.50;42.90
45044;DHT22;30784;48.490;9.688;2023-05-25T00:36:49;13.50;42.90
45044;DHT22;30784;48.490;9.688;2023-05-25T00:39:18;13.40;42.90
45044;DHT22;30784;48.490;9.688;2023-05-25T00:41:45;13.40;42.90
45044;DHT22;30784;48.490;9.688;2023-05-25T00:44:11;13.40;43.10
45044;DHT22;30784;48.490;9.688;2023-05-25T00:46:44;13.40;43.20
45044;DHT22;30784;48.490;9.688;2023-05-25T00:49:13;13.40;43.00
45044;DHT22;30784;48.490;9.688;2023-05-25T00:51:40;13.30;43.10
45044;DHT22;30784;48.490;9.688;2023-05-25T00:56:37;13.30;42.90
45044;DHT22;30784;48.490;9.688;2023-05-25T00:59:06;13.30;43.30
45044;DHT22;30784;48.490;9.688;2023-05-25T01:01:37;13.20;43.30
45044;DHT22;30784;48.490;9.688;2023-05-25T01:04:06;13.20;43.30
45044;DHT22;30784;48.490;9.688;2023-05-25T01:06:35;13.20;43.50
45044;DHT22;30784;48.490;9.688;2023-05-25T01:09:03;13.20;43.40
45044;DHT22;30784;48.490;9.688;2023-05-25T01:11:37;13.10;43.50
45044;DHT22;30784;48.490;9.688;2023-05-25T01:14:03;13.10;43.60
45044;DHT22;30784;48.490;9.688;2023-05-25T01:16:28;13.10;43.70
45044;DHT22;30784;48.490;9.688;2023-05-25T01:18:54;13.10;43.80
45044;DHT22;30784;48.490;9.688;2023-05-25T01:21:20;13.00;44.50
45044;DHT22;30784;48.490;9.688;2023-05-25T01:23:57;13.00;44.10
45044;DHT22;30784;48.490;9.688;2023-05-25T01:26:26;12.90;44.00
45044;DHT22;30784;48.490;9.688;2023-05-25T01:28:54;13.00;44.10
45044;DHT22;30784;48.490;9.688;2023-05-25T01:31:21;12.90;44.20
45044;DHT22;30784;48.490;9.688;2023-05-25T01:33:49;12.90;44.40
45044;DHT22;30784;48.490;9.688;2023-05-25T01:36:16;12.90;44.40
45044;DHT22;30784;48.490;9.688;2023-05-25T01:38:42;12.90;44.60
45044;DHT22;30784;48.490;9.688;2023-05-25T01:41:07;12.90;44.50
45044;DHT22;30784;48.490;9.688;2023-05-25T01:43:33;12.90;44.70
45044;DHT22;30784;48.490;9.688;2023-05-25T01:46:08;12.90;44.70
45044;DHT22;30784;48.490;9.688;2023-05-25T01:48:52;12.80;44.70
45044;DHT22;30784;48.490;9.688;2023-05-25T01:51:31;12.80;44.40
45044;DHT22;30784;48.490;9.688;2023-05-25T01:54:39;12.80;44.80
45044;DHT22;30784;48.490;9.688;2023-05-25T01:56:57;12.90;45.00
45044;DHT22;30784;48.490;9.688;2023-05-25T01:59:26;12.90;45.30
45044;DHT22;30784;48.490;9.688;2023-05-25T02:01:53;12.80;45.40
45044;DHT22;30784;48.490;9.688;2023-05-25T02:04:18;12.90;45.40
45044;DHT22;30784;48.490;9.688;2023-05-25T02:06:47;12.80;45.30
45044;DHT22;30784;48.490;9.688;2023-05-25T02:09:13;12.80;45.50
45044;DHT22;30784;48.490;9.688;2023-05-25T02:11:38;12.80;45.50
45044;DHT22;30784;48.490;9.688;2023-05-25T02:14:04;12.80;45.80
45044;DHT22;30784;48.490;9.688;2023-05-25T02:16:29;12.80;45.70
45044;DHT22;30784;48.490;9.688;2023-05-25T02:18:55;12.90;45.80
45044;DHT22;30784;48.490;9.688;2023-05-25T02:21:22;12.80;45.90
45044;DHT22;30784;48.490;9.688;2023-05-25T02:23:48;12.90;46.20
45044;DHT22;30784;48.490;9.688;2023-05-25T02:26:13;12.90;46.10
45044;DHT22;30784;48.490;9.688;2023-05-25T02:28:39;12.90;46.10
45044;DHT22;30784;48.490;9.688;2023-05-25T02:31:04;12.90;46.20
45044;DHT22;30784;48.490;9.688;2023-05-25T02:33:30;12.80;46.40
45044;DHT22;30784;48.490;9.688;2023-05-25T02:35:55;12.80;46.50
45044;DHT22;30784;48.490;9.688;2023-05-25T02:38:21;12.80;46.50
45044;DHT22;30784;48.490;9.688;2023-05-25T02:40:46;12.90;46.60
45044;DHT22;30784;48.490;9.688;2023-05-25T02:43:12;12.80;46.50
45044;DHT22;30784;48.490;9.688;2023-05-25T02:45:37;12.90;46.90
45044;DHT22;30784;48.490;9.688;2023-05-25T02:48:03;12.80;46.70
45044;DHT22;30784;48.490;9.688;2023-05-25T02:50:29;12.90;47.00
45044;DHT22;30784;48.490;9.688;2023-05-25T02:52:54;12.90;46.90
45044;DHT22;30784;48.490;9.688;2023-05-25T02:55:20;12.80;47.20
45044;DHT22;30784;48.490;9.688;2023-05-25T02:57:45;12.90;47.40
45044;DHT22;30784;48.490;9.688;2023-05-25T03:00:12;12.90;47.30
45044;DHT22;30784;48.490;9.688;2023-05-25T03:02:38;12.90;47.60
45044;DHT22;30784;48.490;9.688;2023-05-25T03:05:04;12.90;47.70
45044;DHT22;30784;48.490;9.688;2023-05-25T03:07:29;12.90;47.80
45044;DHT22;30784;48.490;9.688;2023-05-25T03:09:55;12.80;47.60
45044;DHT22;30784;48.490;9.688;2023-05-25T03:12:21;12.90;48.10
45044;DHT22;30784;48.490;9.688;2023-05-25T03:14:46;12.90;48.10
45044;DHT22;30784;48.490;9.688;2023-05-25T03:17:12;12.90;48.10
45044;DHT22;30784;48.490;9.688;2023-05-25T03:19:37;12.90;48.60
45044;DHT22;30784;48.490;9.688;2023-05-25T03:22:03;12.90;48.30
45044;DHT22;30784;48.490;9.688;2023-05-25T03:24:29;12.90;48.80
45044;DHT22;30784;48.490;9.688;2023-05-25T03:26:54;13.00;48.90
45044;DHT22;30784;48.490;9.688;2023-05-25T03:29:20;12.90;49.10
45044;DHT22;30784;48.490;9.688;2023-05-25T03:31:46;12.90;49.10
45044;DHT22;30784;48.490;9.688;2023-05-25T03:34:11;12.90;49.20
45044;DHT22;30784;48.490;9.688;2023-05-25T03:36:37;12.90;49.50
45044;DHT22;30784;48.490;9.688;2023-05-25T03:39:06;12.90;49.40
45044;DHT22;30784;48.490;9.688;2023-05-25T03:41:34;12.90;49.60
45044;DHT22;30784;48.490;9.688;2023-05-25T03:43:59;12.80;49.80
45044;DHT22;30784;48.490;9.688;2023-05-25T03:46:25;12.80;49.70
45044;DHT22;30784;48.490;9.688;2023-05-25T03:48:51;12.80;50.00
45044;DHT22;30784;48.490;9.688;2023-05-25T03:51:16;12.80;50.20
45044;DHT22;30784;48.490;9.688;2023-05-25T03:53:42;12.80;50.20
45044;DHT22;30784;48.490;9.688;2023-05-25T03:56:07;12.70;50.20
45044;DHT22;30784;48.490;9.688;2023-05-25T03:58:33;12.70;50.50
45044;DHT22;30784;48.490;9.688;2023-05-25T04:00:58;12.70;50.50
45044;DHT22;30784;48.490;9.688;2023-05-25T04:03:24;12.70;50.70
45044;DHT22;30784;48.490;9.688;2023-05-25T04:05:50;12.70;50.80
45044;DHT22;30784;48.490;9.688;2023-05-25T04:08:16;12.70;51.10
45044;DHT22;30784;48.490;9.688;2023-05-25T04:10:45;12.60;51.20
45044;DHT22;30784;48.490;9.688;2023-05-25T04:13:11;12.60;51.20
45044;DHT22;30784;48.490;9.688;2023-05-25T04:15:36;12.60;51.30
45044;DHT22;30784;48.490;9.688;2023-05-25T04:18:02;12.60;51.60
45044;DHT22;30784;48.490;9.688;2023-05-25T04:20:28;12.50;51.80
45044;DHT22;30784;48.490;9.688;2023-05-25T04:22:54;12.50;51.90
45044;DHT22;30784;48.490;9.688;2023-05-25T04:25:20;12.50;51.90
45044;DHT22;30784;48.490;9.688;2023-05-25T04:27:46;12.50;52.10
45044;DHT22;30784;48.490;9.688;2023-05-25T04:30:12;12.50;52.20
45044;DHT22;30784;48.490;9.688;2023-05-25T04:32:38;12.40;52.20
45044;DHT22;30784;48.490;9.688;2023-05-25T04:35:04;12.40;52.30
45044;DHT22;30784;48.490;9.688;2023-05-25T04:37:30;12.40;52.60
45044;DHT22;30784;48.490;9.688;2023-05-25T04:39:57;12.50;52.60
45044;DHT22;30784;48.490;9.688;2023-05-25T04:42:22;12.50;52.70
45044;DHT22;30784;48.490;9.688;2023-05-25T04:44:49;12.50;52.70
45044;DHT22;30784;48.490;9.688;2023-05-25T04:47:15;12.50;52.90
45044;DHT22;30784;48.490;9.688;2023-05-25T04:49:41;12.50;53.10
45044;DHT22;30784;48.490;9.688;2023-05-25T04:52:06;12.50;53.00
45044;DHT22;30784;48.490;9.688;2023-05-25T04:54:32;12.50;53.40
45044;DHT22;30784;48.490;9.688;2023-05-25T04:56:58;12.50;53.50
45044;DHT22;30784;48.490;9.688;2023-05-25T04:59:23;12.60;53.70
45044;DHT22;30784;48.490;9.688;2023-05-25T05:01:49;12.60;53.70
45044;DHT22;30784;48.490;9.688;2023-05-25T05:04:14;12.60;53.70
45044;DHT22;30784;48.490;9.688;2023-05-25T05:06:40;12.60;54.20
45044;DHT22;30784;48.490;9.688;2023-05-25T05:09:06;12.70;54.70
45044;DHT22;30784;48.490;9.688;2023-05-25T05:11:32;12.70;54.70
45044;DHT22;30784;48.490;9.688;2023-05-25T05:13:57;12.70;54.60
45044;DHT22;30784;48.490;9.688;2023-05-25T05:16:23;12.80;55.10
45044;DHT22;30784;48.490;9.688;2023-05-25T05:18:49;12.80;55.20
45044;DHT22;30784;48.490;9.688;2023-05-25T05:21:15;12.80;55.30
45044;DHT22;30784;48.490;9.688;2023-05-25T05:23:43;12.90;55.30
45044;DHT22;30784;48.490;9.688;2023-05-25T05:26:10;12.90;55.80
45044;DHT22;30784;48.490;9.688;2023-05-25T05:28:39;12.90;55.70
45044;DHT22;30784;48.490;9.688;2023-05-25T05:31:04;13.00;55.90
45044;DHT22;30784;48.490;9.688;2023-05-25T05:33:32;13.00;56.10
45044;DHT22;30784;48.490;9.688;2023-05-25T05:35:58;13.10;56.30
45044;DHT22;30784;48.490;9.688;2023-05-25T05:38:23;13.10;56.10
45044;DHT22;30784;48.490;9.688;2023-05-25T05:40:49;13.20;56.20
45044;DHT22;30784;48.490;9.688;2023-05-25T05:43:14;13.20;56.40
45044;DHT22;30784;48.490;9.688;2023-05-25T05:45:40;13.30;56.60
45044;DHT22;30784;48.490;9.688;2023-05-25T05:48:06;13.30;56.40
45044;DHT22;30784;48.490;9.688;2023-05-25T05:50:38;13.40;56.40
45044;DHT22;30784;48.490;9.688;2023-05-25T05:53:04;13.40;56.80
45044;DHT22;30784;48.490;9.688;2023-05-25T05:55:30;13.50;56.60
45044;DHT22;30784;48.490;9.688;2023-05-25T05:57:56;13.50;57.00
45044;DHT22;30784;48.490;9.688;2023-05-25T06:00:22;13.60;56.90
45044;DHT22;30784;48.490;9.688;2023-05-25T06:02:47;13.60;57.00
45044;DHT22;30784;48.490;9.688;2023-05-25T06:05:13;13.60;57.20
45044;DHT22;30784;48.490;9.688;2023-05-25T06:07:39;13.70;57.20
45044;DHT22;30784;48.490;9.688;2023-05-25T06:10:05;13.70;57.20
45044;DHT22;30784;48.490;9.688;2023-05-25T06:12:31;13.80;57.60
45044;DHT22;30784;48.490;9.688;2023-05-25T06:14:56;13.80;57.80
45044;DHT22;30784;48.490;9.688;2023-05-25T06:17:22;13.80;57.60
45044;DHT22;30784;48.490;9.688;2023-05-25T06:19:48;13.90;57.90
45044;DHT22;30784;48.490;9.688;2023-05-25T06:22:17;13.90;58.20
45044;DHT22;30784;48.490;9.688;2023-05-25T06:24:43;13.90;57.80
45044;DHT22;30784;48.490;9.688;2023-05-25T06:27:08;14.00;58.10
45044;DHT22;30784;48.490;9.688;2023-05-25T06:29:34;14.00;58.10
45044;DHT22;30784;48.490;9.688;2023-05-25T06:31:59;14.00;58.30
45044;DHT22;30784;48.490;9.688;2023-05-25T06:34:25;14.10;58.20
45044;DHT22;30784;48.490;9.688;2023-05-25T06:36:51;14.10;58.40
45044;DHT22;30784;48.490;9.688;2023-05-25T06:39:17;14.10;58.30
45044;DHT22;30784;48.490;9.688;2023-05-25T06:41:42;14.20;58.40
45044;DHT22;30784;48.490;9.688;2023-05-25T06:44:08;14.30;58.40
45044;DHT22;30784;48.490;9.688;2023-05-25T06:46:34;14.30;58.40
45044;DHT22;30784;48.490;9.688;2023-05-25T06:49:01;14.30;58.30
45044;DHT22;30784;48.490;9.688;2023-05-25T06:51:27;14.40;58.60
45044;DHT22;30784;48.490;9.688;2023-05-25T06:53:56;14.40;58.40
45044;DHT22;30784;48.490;9.688;2023-05-25T06:56:22;14.40;58.40
45044;DHT22;30784;48.490;9.688;2023-05-25T06:58:48;14.60;58.50
45044;DHT22;30784;48.490;9.688;2023-05-25T07:01:14;14.60;58.40
45044;DHT22;30784;48.490;9.688;2023-05-25T07:03:40;14.70;58.30
45044;DHT22;30784;48.490;9.688;2023-05-25T07:06:07;14.70;58.30
45044;DHT22;30784;48.490;9.688;2023-05-25T07:08:33;14.80;58.20
45044;DHT22;30784;48.490;9.688;2023-05-25T07:10:59;14.90;58.00
45044;DHT22;30784;48.490;9.688;2023-05-25T07:13:25;14.90;57.90
45044;DHT22;30784;48.490;9.688;2023-05-25T07:15:50;15.00;57.90
45044;DHT22;30784;48.490;9.688;2023-05-25T07:18:17;15.00;57.80
45044;DHT22;30784;48.490;9.688;2023-05-25T07:20:43;15.10;57.60
45044;DHT22;30784;48.490;9.688;2023-05-25T07:23:09;15.20;57.30
45044;DHT22;30784;48.490;9.688;2023-05-25T07:25:36;15.20;57.30
45044;DHT22;30784;48.490;9.688;2023-05-25T07:28:02;15.20;57.20
45044;DHT22;30784;48.490;9.688;2023-05-25T07:30:28;15.20;57.20
45044;DHT22;30784;48.490;9.688;2023-05-25T07:32:53;15.20;57.10
45044;DHT22;30784;48.490;9.688;2023-05-25T07:35:19;15.30;56.90
45044;DHT22;30784;48.490;9.688;2023-05-25T07:37:45;15.30;56.90
45044;DHT22;30784;48.490;9.688;2023-05-25T07:40:10;15.30;56.80
45044;DHT22;30784;48.490;9.688;2023-05-25T07:42:36;15.30;56.80
45044;DHT22;30784;48.490;9.688;2023-05-25T07:45:02;15.30;56.80
45044;DHT22;30784;48.490;9.688;2023-05-25T07:47:27;15.40;56.80
45044;DHT22;30784;48.490;9.688;2023-05-25T07:49:53;15.40;56.80
45044;DHT22;30784;48.490;9.688;2023-05-25T07:52:19;15.40;56.70
45044;DHT22;30784;48.490;9.688;2023-05-25T07:54:44;15.50;56.60
45044;DHT22;30784;48.490;9.688;2023-05-25T07:57:10;15.50;56.60
45044;DHT22;30784;48.490;9.688;2023-05-25T07:59:36;15.50;56.60
45044;DHT22;30784;48.490;9.688;2023-05-25T08:02:02;15.50;56.60
45044;DHT22;30784;48.490;9.688;2023-05-25T08:04:29;15.60;56.70
45044;DHT22;30784;48.490;9.688;2023-05-25T08:06:55;15.70;56.70
45044;DHT22;30784;48.490;9.688;2023-05-25T08:09:21;15.80;56.70
45044;DHT22;30784;48.490;9.688;2023-05-25T08:11:47;15.80;56.70
45044;DHT22;30784;48.490;9.688;2023-05-25T08:14:12;15.90;56.60
45044;DHT22;30784;48.490;9.688;2023-05-25T08:19:04;16.10;56.00
45044;DHT22;30784;48.490;9.688;2023-05-25T08:21:30;16.20;56.10
45044;DHT22;30784;48.490;9.688;2023-05-25T08:23:59;16.30;55.70
45044;DHT22;30784;48.490;9.688;2023-05-25T08:26:28;16.40;55.60
45044;DHT22;30784;48.490;9.688;2023-05-25T08:28:55;16.50;55.50
45044;DHT22;30784;48.490;9.688;2023-05-25T08:31:21;16.60;55.20
45044;DHT22;30784;48.490;9.688;2023-05-25T08:33:46;16.70;54.90
45044;DHT22;30784;48.490;9.688;2023-05-25T08:36:12;16.80;54.90
45044;DHT22;30784;48.490;9.688;2023-05-25T08:38:37;16.90;54.90
45044;DHT22;30784;48.490;9.688;2023-05-25T08:41:04;16.90;54.90
45044;DHT22;30784;48.490;9.688;2023-05-25T08:43:31;17.00;54.50
45044;DHT22;30784;48.490;9.688;2023-05-25T08:46:02;17.10;54.50
45044;DHT22;30784;48.490;9.688;2023-05-25T08:48:29;17.20;54.20
45044;DHT22;30784;48.490;9.688;2023-05-25T08:50:59;17.30;53.90
45044;DHT22;30784;48.490;9.688;2023-05-25T08:53:25;17.30;53.70
45044;DHT22;30784;48.490;9.688;2023-05-25T08:55:53;17.40;53.60
45044;DHT22;30784;48.490;9.688;2023-05-25T08:58:24;17.50;53.50
45044;DHT22;30784;48.490;9.688;2023-05-25T09:00:58;17.50;53.30
45044;DHT22;30784;48.490;9.688;2023-05-25T09:03:27;17.50;53.10
45044;DHT22;30784;48.490;9.688;2023-05-25T09:05:55;17.60;53.00
45044;DHT22;30784;48.490;9.688;2023-05-25T09:08:21;17.60;52.60
45044;DHT22;30784;48.490;9.688;2023-05-25T09:10:48;17.60;52.30
45044;DHT22;30784;48.490;9.688;2023-05-25T09:13:14;17.60;52.30
45044;DHT22;30784;48.490;9.688;2023-05-25T09:15:40;17.60;52.40
45044;DHT22;30784;48.490;9.688;2023-05-25T09:18:05;17.60;52.50
45044;DHT22;30784;48.490;9.688;2023-05-25T09:20:31;17.60;52.30
45044;DHT22;30784;48.490;9.688;2023-05-25T09:22:58;17.60;52.80
45044;DHT22;30784;48.490;9.688;2023-05-25T09:25:25;17.60;52.30
45044;DHT22;30784;48.490;9.688;2023-05-25T09:27:52;17.60;52.40
45044;DHT22;30784;48.490;9.688;2023-05-25T09:30:17;17.60;52.40
45044;DHT22;30784;48.490;9.688;2023-05-25T09:32:43;17.60;52.40
45044;DHT22;30784;48.490;9.688;2023-05-25T09:35:10;17.70;52.70
45044;DHT22;30784;48.490;9.688;2023-05-25T09:37:37;17.70;53.10
45044;DHT22;30784;48.490;9.688;2023-05-25T09:40:03;17.90;52.80
45044;DHT22;30784;48.490;9.688;2023-05-25T09:42:30;18.00;52.60
45044;DHT22;30784;48.490;9.688;2023-05-25T09:44:57;18.10;52.20
45044;DHT22;30784;48.490;9.688;2023-05-25T09:47:25;18.30;52.20
45044;DHT22;30784;48.490;9.688;2023-05-25T09:49:51;18.40;51.60
45044;DHT22;30784;48.490;9.688;2023-05-25T09:52:17;18.60;51.50
45044;DHT22;30784;48.490;9.688;2023-05-25T09:54:44;18.70;51.50
45044;DHT22;30784;48.490;9.688;2023-05-25T09:57:10;18.80;51.10
45044;DHT22;30784;48.490;9.688;2023-05-25T09:59:35;19.10;51.10
45044;DHT22;30784;48.490;9.688;2023-05-25T10:02:01;19.20;50.80
45044;DHT22;30784;48.490;9.688;2023-05-25T10:04:27;19.30;50.60
45044;DHT22;30784;48.490;9.688;2023-05-25T10:06:52;19.50;50.30
45044;DHT22;30784;48.490;9.688;2023-05-25T10:09:19;19.70;50.00
45044;DHT22;30784;48.490;9.688;2023-05-25T10:11:45;19.80;49.40
45044;DHT22;30784;48.490;9.688;2023-05-25T10:14:13;20.00;49.10
45044;DHT22;30784;48.490;9.688;2023-05-25T10:16:41;20.00;49.00
45044;DHT22;30784;48.490;9.688;2023-05-25T10:19:19;20.10;48.50
45044;DHT22;30784;48.490;9.688;2023-05-25T10:21:57;20.20;48.60
45044;DHT22;30784;48.490;9.688;2023-05-25T10:24:44;20.20;48.30
45044;DHT22;30784;48.490;9.688;2023-05-25T10:27:17;20.20;48.60
45044;DHT22;30784;48.490;9.688;2023-05-25T10:29:45;20.30;48.00
45044;DHT22;30784;48.490;9.688;2023-05-25T10:32:12;20.30;47.70
45044;DHT22;30784;48.490;9.688;2023-05-25T10:34:39;20.30;47.60
45044;DHT22;30784;48.490;9.688;2023-05-25T10:37:05;20.10;47.40
45044;DHT22;30784;48.490;9.688;2023-05-25T10:39:32;20.10;47.20
45044;DHT22;30784;48.490;9.688;2023-05-25T10:41:59;20.00;47.50
45044;DHT22;30784;48.490;9.688;2023-05-25T10:44:26;20.00;47.60
45044;DHT22;30784;48.490;9.688;2023-05-25T10:46:52;19.90;47.70
45044;DHT22;30784;48.490;9.688;2023-05-25T10:49:31;19.80;47.80
45044;DHT22;30784;48.490;9.688;2023-05-25T10:52:01;19.80;48.60
45044;DHT22;30784;48.490;9.688;2023-05-25T10:54:32;19.80;48.00
45044;DHT22;30784;48.490;9.688;2023-05-25T10:57:19;19.80;48.30
45044;DHT22;30784;48.490;9.688;2023-05-25T10:59:50;19.80;48.50
45044;DHT22;30784;48.490;9.688;2023-05-25T11:02:18;19.80;48.50
45044;DHT22;30784;48.490;9.688;2023-05-25T11:04:48;19.80;48.50
45044;DHT22;30784;48.490;9.688;2023-05-25T11:07:15;19.80;48.40
45044;DHT22;30784;48.490;9.688;2023-05-25T11:09:42;19.90;48.30
45044;DHT22;30784;48.490;9.688;2023-05-25T11:12:17;19.90;48.20
45044;DHT22;30784;48.490;9.688;2023-05-25T11:15:08;19.90;48.20
45044;DHT22;30784;48.490;9.688;2023-05-25T11:17:43;19.90;48.10
45044;DHT22;30784;48.490;9.688;2023-05-25T11:20:26;19.90;48.20
45044;DHT22;30784;48.490;9.688;2023-05-25T11:22:52;19.90;48.30
45044;DHT22;30784;48.490;9.688;2023-05-25T11:25:37;20.00;48.20
45044;DHT22;30784;48.490;9.688;2023-05-25T11:28:04;20.00;48.30
45044;DHT22;30784;48.490;9.688;2023-05-25T11:30:30;20.00;48.00
45044;DHT22;30784;48.490;9.688;2023-05-25T11:32:56;20.00;47.90
45044;DHT22;30784;48.490;9.688;2023-05-25T11:35:25;20.00;47.80
45044;DHT22;30784;48.490;9.688;2023-05-25T11:37:51;20.10;47.90
45044;DHT22;30784;48.490;9.688;2023-05-25T11:40:21;20.10;47.90
45044;DHT22;30784;48.490;9.688;2023-05-25T11:42:47;20.10;47.70
45044;DHT22;30784;48.490;9.688;2023-05-25T11:45:14;20.10;47.70
45044;DHT22;30784;48.490;9.688;2023-05-25T11:47:40;20.20;47.70
45044;DHT22;30784;48.490;9.688;2023-05-25T11:50:05;20.20;47.70
45044;DHT22;30784;48.490;9.688;2023-05-25T11:52:32;20.20;47.80
45044;DHT22;30784;48.490;9.688;2023-05-25T11:54:57;20.30;47.80
45044;DHT22;30784;48.490;9.688;2023-05-25T11:57:23;20.30;47.60
45044;DHT22;30784;48.490;9.688;2023-05-25T11:59:54;20.40;47.60
45044;DHT22;30784;48.490;9.688;2023-05-25T12:02:20;20.50;47.70
45044;DHT22;30784;48.490;9.688;2023-05-25T12:04:55;20.50;47.40
45044;DHT22;30784;48.490;9.688;2023-05-25T12:07:22;20.60;47.30
45044;DHT22;30784;48.490;9.688;2023-05-25T12:09:47;20.70;47.10
45044;DHT22;30784;48.490;9.688;2023-05-25T12:12:13;20.80;47.20
45044;DHT22;30784;48.490;9.688;2023-05-25T12:14:48;20.80;46.90
45044;DHT22;30784;48.490;9.688;2023-05-25T12:17:16;20.90;46.90
45044;DHT22;30784;48.490;9.688;2023-05-25T12:19:42;20.90;46.70
45044;DHT22;30784;48.490;9.688;2023-05-25T12:22:09;21.00;46.30
45044;DHT22;30784;48.490;9.688;2023-05-25T12:24:35;21.00;46.30
45044;DHT22;30784;48.490;9.688;2023-05-25T12:27:01;21.00;46.40
45044;DHT22;30784;48.490;9.688;2023-05-25T12:29:28;21.00;46.30
45044;DHT22;30784;48.490;9.688;2023-05-25T12:32:03;21.10;46.10
45044;DHT22;30784;48.490;9.688;2023-05-25T12:34:29;21.10;46.30
45044;DHT22;30784;48.490;9.688;2023-05-25T12:36:55;21.10;46.10
45044;DHT22;30784;48.490;9.688;2023-05-25T12:42:02;21.10;46.10
45044;DHT22;30784;48.490;9.688;2023-05-25T12:44:30;21.10;46.20
45044;DHT22;30784;48.490;9.688;2023-05-25T12:47:14;21.10;46.10
45044;DHT22;30784;48.490;9.688;2023-05-25T12:49:42;21.20;46.60
45044;DHT22;30784;48.490;9.688;2023-05-25T12:52:09;21.20;46.00
45044;DHT22;30784;48.490;9.688;2023-05-25T12:54:43;21.20;45.90
45044;DHT22;30784;48.490;9.688;2023-05-25T12:57:13;21.30;45.90
45044;DHT22;30784;48.490;9.688;2023-05-25T12:59:44;21.40;45.80
45044;DHT22;30784;48.490;9.688;2023-05-25T13:02:11;21.40;45.50
45044;DHT22;30784;48.490;9.688;2023-05-25T13:04:38;21.40;45.40
45044;DHT22;30784;48.490;9.688;2023-05-25T13:07:05;21.50;45.40
45044;DHT22;30784;48.490;9.688;2023-05-25T13:09:33;21.50;45.40
45044;DHT22;30784;48.490;9.688;2023-05-25T13:11:59;21.60;45.50
45044;DHT22;30784;48.490;9.688;2023-05-25T13:14:26;21.70;45.30
45044;DHT22;30784;48.490;9.688;2023-05-25T13:16:52;21.80;45.00
45044;DHT22;30784;48.490;9.688;2023-05-25T13:19:20;21.80;45.00
45044;DHT22;30784;48.490;9.688;2023-05-25T13:21:46;21.80;44.80
45044;DHT22;30784;48.490;9.688;2023-05-25T13:24:14;21.90;44.90
45044;DHT22;30784;48.490;9.688;2023-05-25T13:26:41;21.90;44.70
45044;DHT22;30784;48.490;9.688;2023-05-25T13:29:07;22.00;44.60
45044;DHT22;30784;48.490;9.688;2023-05-25T13:31:33;22.10;44.50
45044;DHT22;30784;48.490;9.688;2023-05-25T13:33:59;22.10;44.30
45044;DHT22;30784;48.490;9.688;2023-05-25T13:36:24;22.10;44.10
45044;DHT22;30784;48.490;9.688;2023-05-25T13:38:50;22.10;43.90
45044;DHT22;30784;48.490;9.688;2023-05-25T13:41:16;22.20;43.90
45044;DHT22;30784;48.490;9.688;2023-05-25T13:43:42;22.20;43.90
45044;DHT22;30784;48.490;9.688;2023-05-25T13:46:08;22.20;43.80
45044;DHT22;30784;48.490;9.688;2023-05-25T13:48:33;22.30;43.70
45044;DHT22;30784;48.490;9.688;2023-05-25T13:50:59;22.30;43.70
45044;DHT22;30784;48.490;9.688;2023-05-25T13:53:25;22.40;43.60
45044;DHT22;30784;48.490;9.688;2023-05-25T13:55:50;22.40;43.70
45044;DHT22;30784;48.490;9.688;2023-05-25T13:58:16;22.40;43.60
45044;DHT22;30784;48.490;9.688;2023-05-25T14:00:42;22.50;43.60
45044;DHT22;30784;48.490;9.688;2023-05-25T14:03:07;22.50;43.50
45044;DHT22;30784;48.490;9.688;2023-05-25T14:05:33;22.50;43.10
45044;DHT22;30784;48.490;9.688;2023-05-25T14:07:58;22.60;42.90
45044;DHT22;30784;48.490;9.688;2023-05-25T14:10:27;22.60;43.10
45044;DHT22;30784;48.490;9.688;2023-05-25T14:12:52;22.60;42.90
45044;DHT22;30784;48.490;9.688;2023-05-25T14:15:18;22.70;42.90
45044;DHT22;30784;48.490;9.688;2023-05-25T14:17:43;22.70;42.80
45044;DHT22;30784;48.490;9.688;2023-05-25T14:20:09;22.70;42.40
45044;DHT22;30784;48.490;9.688;2023-05-25T14:22:36;22.70;42.70
45044;DHT22;30784;48.490;9.688;2023-05-25T14:25:01;22.80;42.60
45044;DHT22;30784;48.490;9.688;2023-05-25T14:27:27;22.70;42.80
45044;DHT22;30784;48.490;9.688;2023-05-25T14:29:52;22.80;42.80
45044;DHT22;30784;48.490;9.688;2023-05-25T14:32:18;22.90;42.80
45044;DHT22;30784;48.490;9.688;2023-05-25T14:34:44;23.00;42.70
45044;DHT22;30784;48.490;9.688;2023-05-25T14:37:10;23.20;42.30
45044;DHT22;30784;48.490;9.688;2023-05-25T14:39:36;23.40;42.60
45044;DHT22;30784;48.490;9.688;2023-05-25T14:42:02;23.60;42.20
45044;DHT22;30784;48.490;9.688;2023-05-25T14:44:28;23.80;42.00
45044;DHT22;30784;48.490;9.688;2023-05-25T14:46:54;24.00;42.00
45044;DHT22;30784;48.490;9.688;2023-05-25T14:49:20;24.20;41.90
45044;DHT22;30784;48.490;9.688;2023-05-25T14:51:49;24.40;41.30
45044;DHT22;30784;48.490;9.688;2023-05-25T14:54:15;24.60;40.80
45044;DHT22;30784;48.490;9.688;2023-05-25T14:56:40;24.60;40.40
45044;DHT22;30784;48.490;9.688;2023-05-25T14:59:06;24.70;40.30
45044;DHT22;30784;48.490;9.688;2023-05-25T15:01:31;24.70;40.00
45044;DHT22;30784;48.490;9.688;2023-05-25T15:03:57;24.80;39.90
45044;DHT22;30784;48.490;9.688;2023-05-25T15:06:22;24.90;40.20
45044;DHT22;30784;48.490;9.688;2023-05-25T15:08:48;25.10;39.30
45044;DHT22;30784;48.490;9.688;2023-05-25T15:11:13;25.10;38.90
45044;DHT22;30784;48.490;9.688;2023-05-25T15:13:39;25.10;38.90
45044;DHT22;30784;48.490;9.688;2023-05-25T15:16:05;25.20;38.70
45044;DHT22;30784;48.490;9.688;2023-05-25T15:18:30;25.30;38.50
45044;DHT22;30784;48.490;9.688;2023-05-25T15:20:56;25.30;38.40
45044;DHT22;30784;48.490;9.688;2023-05-25T15:23:22;25.30;38.10
45044;DHT22;30784;48.490;9.688;2023-05-25T15:25:48;25.30;38.00
45044;DHT22;30784;48.490;9.688;2023-05-25T15:28:13;25.20;37.90
45044;DHT22;30784;48.490;9.688;2023-05-25T15:30:39;25.20;38.10
45044;DHT22;30784;48.490;9.688;2023-05-25T15:33:05;25.30;38.40
45044;DHT22;30784;48.490;9.688;2023-05-25T15:35:30;25.30;37.70